Rickenbacker International Airport
KLCK : rendu visible

Aérodrome :











RETROUVEZ-NOUS SUR...

 
LOGIN :

S'inscrire | Disclaimer

   EN    FR    IT 

 









Légende :    VFR   VFR Marginal   IFR   IFR Intensif   IFR Très Intensif
Visi : 
Plafond : 
>= 8 km
>= 3000ft
5 à 8 km
1000 à 3000 ft
1500m à 5 km
500 à 1000 ft
800 à 1500m
200 à 500 ft
< 800m
< 200 ft
Symboles :   Orages  Brouillard  Fortes neiges  Fortes précipitations  Vent > 20 kt






- Altitude de l'aérodrome : 744 ft


KLCK - Rickenbacker International

DERNIER METAR :
  • 171755Z AUTO 06008KT 10SM SCT024 M02/M08 A3071 RMK AO2 T10181080 10206 21063

METARs EXPIRÉS :
  • 171655Z AUTO 06007KT 10SM BKN024 M03/M09 A3077 RMK AO2 T10271086
  • 171555Z AUTO 08008KT 10SM CLR M03/M09 A3078 RMK AO2 T10321092

TAF KLCK
Valide du 17 à 18h jusqu'au 18 à 18h UTC


171725Z 1718/1818 09009KT P6SM OVC250
FM172300 10012G18KT P6SM OVC100
FM180300 11013G19KT P6SM SCT050 OVC080
TEMPO 1803/1807 -SN BKN040 OVC060
FM180800 13010KT P6SM VCSH SCT035 OVC050
FM181000 15014KT 5SM -FZRAPL BR SCT020 OVC035
FM181300 18016KT 4SM RA BR SCT012 OVC020 WS020/20040KT
TEMPO 1813/1817 3SM RA BR SCT008 OVC012
FM181700 20018KT P6SM VCSH BKN008 OVC012 WS020/22050KT



MET'MAP, la Météo Aéronautique d'un coup d'oeil ! - Copyright ORBIFLY Décembre 2007 - Disclaimer

ORBIFLY MET'MAP TEAM :

Programmation & Développement : Alexandra Zaïnal
Sur une idée originale de : Baudouin d'Aumeries
Assistance à la programmation : Marc-Olivier Méhu
Soutien technique & logistique : Manuel Goepfert

Contact : metmap@orbifly.com




SOURCES & CREDITS :

   NOAA       Earth
Advisory